Decoded Metar for KPOE (FORT POLK in LA, USA) (IATA:POE) | Meteo·Mobile Aviation Weather
aviador You're here:

KPOE Decoded Metar

FORT POLK in LA, USA
Report Time2018-08-22 04:58:00
UTC Time2018-08-22 05:37:04
Flight Rules vfr VFR
Wind080° at 04 kt
W.Decomp.*RWY 16: 0.6 kt HW 4 kt LCW
W.Rank080° ranks 22
Current wind is below 080° avg. (5.0)
Visibility9999 m
Phenomena:N/A
Clouds:Broken 070 Hf
Expected CloudBase > 3,600 ft AGL from Temp-Dew spread
Ceiling7,000 ft
Temp27°C (ISA +13)
Dew Point18°C (58% RH)
Heat Index27.9°C
QNH1018 hPa
Density Alt1,896 ft
Elevation331 ft
Report Wrong Elevation
Raw Report
KPOE 220458Z AUTO 08004KT 10SM BKN070 27/18 A3007 RMK AO2 SLP181
T02670179=

Extra information for KPOE:More info

Metar Taf Metar & Taf Last 4 Metars F.Rules Stats Wind Profile Meteogram Temp Stats Airport Information Weather charts Add Link Nearby VenuesMetar ALERT Operation Metar Decoded Social comments

AIRNAV info for KPOE